Milo, Canada
Current Conditions -  °F | °C
As of 8:00 AM on Monday 24 Nov 2014 (Local Time) from CYYC Reporting Station
Scattered Clouds Scattered Clouds  
Wind Chill: 25°   Ceiling: Unl
Heat Index: 30°   Visibility: 40mi
Dew Point: 21°   Wind: 5mph
Humidity: 69%   Direction: 240°WSW
Pressure: 30"   Gusts: NA
Location:  50.57°N, 112.88°W
Report Text: CYYC 241500Z 24004KT 40SM SCT110 M01/M06 A3000 RMK AC4 SLP206
Loading
Personal Weather Stations






























Interactive Weather Map New forecast layout! Learn more

10-Day Weather Forecast

Advertisements
Track Severe Weather on mobile